CTK weather

Ingersoll Airport
Canton, Illinois, United States

Public forecast

Using degrees Fahrenheit for public forecast. Weather courtesy of forecast.io.

METAR (pilot weather report)

Closest report is General Wayne A. Downing Peoria International Airport, 18.3 nm (33.9 km) ENE. Retrieved 2019/06/20 11:54 UTC (58 minutes ago):

KPIA 201154Z VRB05KT 10SM BKN050 15/13 A2971 RMK AO2 SLP058 70205 T01500133 10167 20144 53022

TAF (pilot weather forecast)

Closest forecast is General Wayne A. Downing Peoria International Airport, 18.3 nm (33.9 km) ENE. Retrieved 2019/06/20 12:42 UTC (10 minutes ago):

TAF KPIA 201139Z 2012/2112 35008KT P6SM SCT040 TEMPO 2013/2015 BKN030 FM201700 33005KT P6SM SCT040 SCT100 FM210100 VRB05KT P6SM SCT100